Time;durP1;ratioP1;P1;durP2;ratioP2;P2;SDS_P1;SDS_P2;PMS_P1;PMS_P2;Temp;Humidity;BMP_temperature;BMP_pressure;BME280_temperature;BME280_humidity;BME280_pressure;Samples;Min_cycle;Max_cycle;Signal;HPM_P1;HPM_P2
2024/02/12 00:02:22;;;;;;;7.32;5.38;;;11.20;68.80;13.00;99498.00;;;;5046220;28;20200;-79
2024/02/12 00:04:50;;;;;;;8.65;4.95;;;11.20;68.90;13.00;99498.00;;;;5035304;28;20213;-79
2024/02/12 00:07:18;;;;;;;8.50;5.88;;;11.20;68.90;13.00;99498.00;;;;5030546;28;20210;-78
2024/02/12 00:09:45;;;;;;;8.38;6.00;;;11.20;69.00;13.00;99513.00;;;;5027445;28;20266;-79
2024/02/12 00:12:13;;;;;;;5.60;4.60;;;11.20;69.00;13.00;99505.00;;;;5027773;28;20206;-79
2024/02/12 00:14:40;;;;;;;7.28;5.35;;;11.10;69.00;12.90;99503.00;;;;5041744;28;20219;-79
2024/02/12 00:17:10;;;;;;;9.63;4.88;;;11.10;68.90;12.90;99505.00;;;;5049512;28;20218;-79
2024/02/12 00:19:38;;;;;;;6.63;4.75;;;11.10;68.90;12.90;99519.00;;;;5020661;28;20580;-79
2024/02/12 00:22:05;;;;;;;9.93;5.53;;;11.10;68.80;12.90;99523.00;;;;5044443;28;20669;-79
2024/02/12 00:24:34;;;;;;;7.03;5.47;;;11.00;68.70;12.80;99529.00;;;;5045573;28;20214;-79
2024/02/12 00:27:02;;;;;;;7.68;5.55;;;11.00;68.70;12.80;99530.00;;;;5036383;28;20728;-79
2024/02/12 00:29:28;;;;;;;8.13;5.13;;;11.00;68.60;12.70;99539.00;;;;5040256;28;20197;-79
2024/02/12 00:31:58;;;;;;;7.90;5.10;;;10.90;68.60;12.70;99542.00;;;;5033797;28;20200;-79
2024/02/12 00:34:28;;;;;;;7.22;5.22;;;10.90;68.70;12.70;99538.00;;;;5033527;28;20792;-80
2024/02/12 00:36:55;;;;;;;9.85;5.15;;;10.90;68.80;12.70;99541.00;;;;5031773;28;20192;-79
2024/02/12 00:39:23;;;;;;;6.22;5.07;;;10.80;68.70;12.70;99545.00;;;;5036581;28;20278;-79
2024/02/12 00:41:52;;;;;;;6.40;4.90;;;10.80;68.90;12.70;99546.00;;;;5044213;28;20354;-79
2024/02/12 00:44:20;;;;;;;7.00;4.78;;;10.80;68.90;12.70;99554.00;;;;5030817;28;20722;-79
2024/02/12 00:46:47;;;;;;;6.78;4.70;;;10.80;68.90;12.60;99554.00;;;;5046052;28;20265;-79
2024/02/12 00:49:15;;;;;;;7.10;5.15;;;10.80;69.00;12.60;99562.00;;;;5038536;28;20555;-79
2024/02/12 00:51:44;;;;;;;6.53;4.90;;;10.80;69.10;12.60;99571.00;;;;5050765;28;20211;-79
2024/02/12 00:54:12;;;;;;;9.50;5.75;;;10.80;69.20;12.60;99578.00;;;;5041622;28;20219;-79
2024/02/12 00:56:43;;;;;;;7.03;5.57;;;10.80;69.40;12.60;99584.00;;;;5044690;28;20207;-79
2024/02/12 00:59:11;;;;;;;7.28;5.38;;;10.70;69.40;12.70;99580.00;;;;5043204;28;20263;-79
2024/02/12 01:01:39;;;;;;;8.93;5.95;;;10.80;69.50;12.70;99579.00;;;;5038825;28;20271;-79
2024/02/12 01:04:07;;;;;;;11.45;6.03;;;10.80;69.60;12.70;99581.00;;;;5036699;28;20202;-79
2024/02/12 01:06:34;;;;;;;12.07;6.05;;;10.80;69.70;12.70;99583.00;;;;5038552;28;20203;-79
2024/02/12 01:09:05;;;;;;;10.68;5.80;;;10.80;69.80;12.70;99586.00;;;;5042441;28;22548;-79
2024/02/12 01:11:32;;;;;;;9.40;6.57;;;10.80;69.90;12.80;99590.00;;;;5046023;28;20196;-79
2024/02/12 01:13:59;;;;;;;8.90;5.90;;;10.90;70.00;12.80;99592.00;;;;5030336;28;20208;-79
2024/02/12 01:16:27;;;;;;;10.95;6.70;;;10.90;70.00;12.80;99597.00;;;;5030841;28;20228;-79
2024/02/12 01:18:54;;;;;;;10.15;6.82;;;10.90;70.10;12.90;99596.00;;;;5051265;28;20203;-79
2024/02/12 01:21:22;;;;;;;8.50;6.55;;;11.00;70.20;12.90;99592.00;;;;5031492;28;20197;-79
2024/02/12 01:23:50;;;;;;;9.27;6.57;;;11.00;70.20;12.90;99601.00;;;;5040004;28;20700;-79
2024/02/12 01:26:19;;;;;;;15.60;6.75;;;11.00;70.30;12.90;99608.00;;;;5039898;28;20226;-79
2024/02/12 01:28:46;;;;;;;10.57;7.13;;;11.10;70.30;13.00;99608.00;;;;5037600;28;20205;-79
2024/02/12 01:31:17;;;;;;;11.18;7.38;;;11.10;70.30;13.00;99609.00;;;;5040279;28;20203;-79
2024/02/12 01:33:46;;;;;;;10.77;8.00;;;11.20;70.30;13.10;99611.00;;;;5039735;28;20214;-79
2024/02/12 01:36:14;;;;;;;9.35;6.65;;;11.20;70.30;13.10;99612.00;;;;5034450;28;20247;-79
2024/02/12 01:38:42;;;;;;;15.27;7.90;;;11.20;70.30;13.10;99620.00;;;;5029995;28;20200;-79
2024/02/12 01:41:09;;;;;;;13.48;7.47;;;11.30;70.40;13.20;99613.00;;;;5047912;28;20215;-79
2024/02/12 01:43:38;;;;;;;10.90;7.43;;;11.30;70.30;13.20;99612.00;;;;5046989;28;20203;-79
2024/02/12 01:46:06;;;;;;;10.40;7.90;;;11.40;70.30;13.20;99620.00;;;;5029625;28;20211;-79
2024/02/12 01:48:35;;;;;;;12.60;8.00;;;11.40;70.30;13.20;99632.00;;;;5035105;28;20588;-80
2024/02/12 01:51:06;;;;;;;10.88;7.45;;;11.40;70.30;13.20;99625.00;;;;5034170;28;20196;-79
2024/02/12 01:53:35;;;;;;;11.68;7.13;;;11.40;70.30;13.20;99634.00;;;;5035806;28;20204;-79
2024/02/12 01:56:03;;;;;;;11.35;7.32;;;11.50;70.30;13.20;99628.00;;;;5045634;28;20233;-80
2024/02/12 01:58:32;;;;;;;11.23;7.47;;;11.50;70.30;13.30;99627.00;;;;5045201;28;20192;-79
2024/02/12 02:01:00;;;;;;;11.10;6.53;;;11.50;70.30;13.30;99623.00;;;;5032506;28;20231;-80
2024/02/12 02:03:30;;;;;;;11.88;7.50;;;11.50;70.30;13.30;99632.00;;;;5029138;28;20192;-79
2024/02/12 02:05:57;;;;;;;13.63;8.18;;;11.50;70.30;13.30;99637.00;;;;5029446;28;20228;-80
2024/02/12 02:08:36;;;;;;;14.50;8.45;;;11.60;70.30;13.20;99640.00;;;;5046181;28;20195;-79
2024/02/12 02:11:05;;;;;;;11.82;8.25;;;11.60;70.30;13.30;99638.00;;;;5029026;28;20215;-80
2024/02/12 02:13:34;;;;;;;12.20;7.43;;;11.60;70.10;13.30;99637.00;;;;5048853;28;20962;-80
2024/02/12 02:16:03;;;;;;;13.75;9.10;;;11.60;70.10;13.30;99624.00;;;;5029698;28;20717;-79
2024/02/12 02:18:30;;;;;;;9.85;6.55;;;11.60;70.00;13.30;99640.00;;;;5028131;28;20246;-80
2024/02/12 02:20:57;;;;;;;11.77;8.07;;;11.60;70.70;13.30;99645.00;;;;5040188;28;20207;-79
2024/02/12 02:23:25;;;;;;;11.65;7.85;;;11.60;70.00;13.40;99646.00;;;;5033583;28;20316;-79
2024/02/12 02:25:55;;;;;;;11.60;8.00;;;11.60;69.90;13.30;99643.00;;;;5032928;28;20272;-79
2024/02/12 02:28:24;;;;;;;11.43;7.47;;;11.60;69.90;13.30;99647.00;;;;5029161;28;20208;-79
2024/02/12 02:30:52;;;;;;;10.38;7.03;;;11.60;69.90;13.40;99648.00;;;;5042241;28;20281;-79
2024/02/12 02:33:20;;;;;;;11.50;7.18;;;11.60;69.90;13.40;99656.00;;;;5028149;28;20211;-80
2024/02/12 02:35:48;;;;;;;11.10;7.63;;;11.60;70.00;13.40;99657.00;;;;5028909;28;20228;-79
2024/02/12 02:38:15;;;;;;;10.18;7.28;;;11.60;70.00;13.40;99661.00;;;;5046229;28;20230;-79
2024/02/12 02:40:43;;;;;;;13.10;6.72;;;11.60;69.90;13.40;99665.00;;;;5042424;28;20223;-79
2024/02/12 02:43:12;;;;;;;10.85;7.45;;;11.60;69.90;13.40;99647.00;;;;5036232;28;20247;-79
2024/02/12 02:45:39;;;;;;;12.00;8.27;;;11.60;69.90;13.40;99668.00;;;;5028398;28;20215;-79
2024/02/12 02:48:07;;;;;;;12.73;7.85;;;11.60;69.80;13.40;99660.00;;;;5029078;28;20556;-79
2024/02/12 02:50:35;;;;;;;13.38;7.88;;;11.60;69.80;13.40;99654.00;;;;5034102;28;20193;-79
2024/02/12 02:53:02;;;;;;;11.48;7.50;;;11.60;69.80;13.40;99656.00;;;;5044121;28;20206;-79
2024/02/12 02:55:29;;;;;;;12.13;8.95;;;11.60;69.70;13.30;99659.00;;;;5030502;28;20342;-79
2024/02/12 02:58:01;;;;;;;16.42;9.13;;;11.60;69.70;13.40;99665.00;;;;5041955;28;20282;-79
2024/02/12 03:00:30;;;;;;;13.60;8.52;;;11.60;69.70;13.30;99659.00;;;;5027151;28;20223;-80
2024/02/12 03:02:57;;;;;;;12.13;8.80;;;11.60;69.70;13.30;99658.00;;;;5046248;28;21049;-79
2024/02/12 03:05:27;;;;;;;10.88;8.07;;;11.60;69.60;13.30;99665.00;;;;5040241;28;20207;-79
2024/02/12 03:07:54;;;;;;;12.60;9.15;;;11.60;69.70;13.30;99665.00;;;;5028051;28;20199;-79
2024/02/12 03:10:21;;;;;;;10.75;7.55;;;11.60;69.70;13.40;99661.00;;;;5039442;28;20207;-79
2024/02/12 03:12:49;;;;;;;14.15;8.65;;;11.60;69.70;13.40;99669.00;;;;5047268;28;20291;-79
2024/02/12 03:15:16;;;;;;;12.43;8.25;;;11.60;69.80;13.40;99671.00;;;;5046288;28;20599;-80
2024/02/12 03:20:12;;;;;;;11.38;7.80;;;11.60;69.70;13.30;99668.00;;;;5090351;22;20235;-79
2024/02/12 03:22:40;;;;;;;15.13;8.43;;;11.50;69.50;13.30;99656.00;;;;5049023;28;20214;-79
2024/02/12 03:25:10;;;;;;;13.02;8.40;;;11.50;69.80;13.30;99656.00;;;;5049389;28;20342;-80
2024/02/12 03:27:37;;;;;;;11.32;7.32;;;11.50;69.40;13.20;99660.00;;;;5050899;28;20199;-79
2024/02/12 03:30:07;;;;;;;12.50;7.45;;;11.50;69.30;13.20;99658.00;;;;5047476;28;20210;-79
2024/02/12 03:32:34;;;;;;;11.77;7.55;;;11.50;69.10;13.20;99666.00;;;;5049898;28;20214;-80
2024/02/12 03:35:04;;;;;;;12.48;8.00;;;11.40;69.00;13.10;99681.00;;;;5050640;28;20204;-78
2024/02/12 03:37:31;;;;;;;13.95;7.28;;;11.30;69.00;13.10;99701.00;;;;5051298;28;20265;-79
2024/02/12 03:39:58;;;;;;;11.45;7.80;;;11.30;69.60;13.00;99694.00;;;;5050143;28;20261;-79
2024/02/12 03:42:27;;;;;;;12.07;7.97;;;11.30;68.90;13.00;99708.00;;;;5051210;28;20295;-79
2024/02/12 03:44:55;;;;;;;10.13;7.35;;;11.20;68.80;12.90;99704.00;;;;5050946;28;20243;-78
2024/02/12 03:47:27;;;;;;;11.55;7.63;;;11.20;68.70;12.90;99710.00;;;;5050629;28;20565;-79
2024/02/12 04:00:55;;;;;;;12.35;7.15;;;10.90;68.80;12.60;99726.00;;;;4995211;28;20204;-78
2024/02/12 04:03:22;;;;;;;16.40;8.65;;;10.90;68.90;12.60;99734.00;;;;5034892;28;20244;-78
2024/02/12 04:05:49;;;;;;;10.63;7.13;;;10.80;68.90;12.50;99726.00;;;;5033745;28;20215;-79
2024/02/12 04:08:18;;;;;;;15.05;8.73;;;10.80;68.90;12.50;99742.00;;;;5028280;28;20254;-78
2024/02/12 04:10:45;;;;;;;12.10;7.43;;;10.80;69.00;12.50;99726.00;;;;5033052;28;20307;-77
2024/02/12 04:13:14;;;;;;;15.02;8.35;;;10.70;69.00;12.40;99728.00;;;;5031261;28;20705;-78
2024/02/12 04:15:41;;;;;;;12.18;8.02;;;10.70;69.00;12.40;99733.00;;;;5033692;28;20232;-78
2024/02/12 04:18:09;;;;;;;11.75;7.47;;;10.70;69.10;12.40;99724.00;;;;5034219;28;20196;-79
2024/02/12 04:20:37;;;;;;;11.65;7.82;;;10.70;69.10;12.40;99727.00;;;;5032291;28;20207;-79
2024/02/12 04:23:05;;;;;;;13.70;8.10;;;10.60;69.00;12.30;99724.00;;;;5026425;28;20555;-80
2024/02/12 04:25:35;;;;;;;13.73;7.95;;;10.60;69.10;12.30;99725.00;;;;5023205;28;20228;-79
2024/02/12 04:28:03;;;;;;;13.43;8.32;;;10.60;69.10;12.30;99733.00;;;;5034210;28;20200;-79
2024/02/12 04:30:30;;;;;;;13.45;8.38;;;10.50;69.00;12.30;99740.00;;;;5033003;28;20712;-78
2024/02/12 04:33:01;;;;;;;12.02;8.15;;;10.50;69.10;12.20;99743.00;;;;5031406;28;20197;-78
2024/02/12 04:35:30;;;;;;;12.45;8.18;;;10.40;69.00;12.20;99744.00;;;;5046771;28;20272;-79
2024/02/12 04:37:57;;;;;;;12.95;8.10;;;10.40;69.00;12.20;99754.00;;;;5034159;28;20201;-78
2024/02/12 04:40:24;;;;;;;12.18;7.35;;;10.40;69.00;12.20;99764.00;;;;5024307;28;20205;-79
2024/02/12 04:42:54;;;;;;;11.35;7.80;;;10.40;69.10;12.20;99767.00;;;;5017950;28;20204;-79
2024/02/12 04:45:21;;;;;;;10.52;7.15;;;10.40;69.20;12.20;99770.00;;;;5034257;28;20211;-78
2024/02/12 04:47:51;;;;;;;12.02;7.82;;;10.30;69.30;12.20;99766.00;;;;5033637;28;20287;-79
2024/02/12 04:50:19;;;;;;;13.65;7.97;;;10.40;69.40;12.20;99765.00;;;;5033873;28;20292;-78
2024/02/12 04:52:47;;;;;;;12.38;7.38;;;10.30;69.50;12.20;99773.00;;;;5033342;28;20566;-79
2024/02/12 04:55:15;;;;;;;14.20;8.57;;;10.40;70.30;12.30;99768.00;;;;5031188;28;20204;-78
2024/02/12 04:57:42;;;;;;;11.50;7.30;;;10.40;69.70;12.30;99775.00;;;;5033270;28;20290;-79
2024/02/12 05:00:13;;;;;;;11.70;7.60;;;10.40;69.70;12.30;99783.00;;;;5033860;28;20220;-79
2024/02/12 05:02:40;;;;;;;13.48;8.07;;;10.40;69.70;12.30;99781.00;;;;5030409;28;20200;-79
2024/02/12 05:05:11;;;;;;;12.10;7.70;;;10.40;69.70;12.30;99766.00;;;;5032826;28;20208;-78
2024/02/12 05:07:38;;;;;;;13.55;8.07;;;10.40;69.70;12.30;99779.00;;;;5032674;28;20211;-78
2024/02/12 05:10:07;;;;;;;11.48;8.48;;;10.50;69.70;12.40;99773.00;;;;5033509;28;20283;-79
2024/02/12 05:12:35;;;;;;;12.35;7.05;;;10.40;69.80;12.40;99789.00;;;;5032987;28;20574;-78
2024/02/12 05:15:02;;;;;;;13.68;8.15;;;10.50;69.90;12.40;99785.00;;;;5033020;28;20743;-79
2024/02/12 05:17:52;;;;;;;12.88;8.07;;;10.50;69.90;12.40;99782.00;;;;5031843;28;20260;-79
2024/02/12 05:23:02;;;;;;;13.95;7.97;;;10.50;69.80;12.40;99785.00;;;;5030788;28;20581;-79
2024/02/12 05:25:30;;;;;;;12.35;7.47;;;10.60;69.80;12.50;99793.00;;;;5033466;28;20279;-79
2024/02/12 05:27:57;;;;;;;12.30;7.80;;;10.60;69.90;12.50;99792.00;;;;5029663;28;20200;-78
2024/02/12 05:30:24;;;;;;;13.00;8.60;;;10.60;69.90;12.50;99794.00;;;;5024904;28;20353;-79
2024/02/12 05:32:52;;;;;;;14.02;8.02;;;10.60;69.90;12.50;99790.00;;;;5013361;28;20750;-78
2024/02/12 05:35:20;;;;;;;12.07;7.10;;;10.60;69.90;12.50;99792.00;;;;5018115;28;20291;-79
2024/02/12 05:37:47;;;;;;;10.88;7.40;;;10.70;69.80;12.50;99794.00;;;;5032404;28;20246;-79
2024/02/12 05:40:14;;;;;;;9.90;6.97;;;10.70;69.80;12.60;99792.00;;;;5031247;28;20681;-79
2024/02/12 05:42:42;;;;;;;11.82;7.82;;;10.70;69.80;12.60;99786.00;;;;5032325;28;20214;-79
2024/02/12 05:45:10;;;;;;;12.75;8.57;;;10.70;69.80;12.60;99790.00;;;;5033154;28;20536;-79
2024/02/12 05:47:40;;;;;;;12.10;7.53;;;10.70;69.80;12.60;99783.00;;;;5030121;28;20265;-79
2024/02/12 05:50:11;;;;;;;13.10;8.63;;;10.70;69.80;12.60;99788.00;;;;5019828;28;20200;-79
2024/02/12 05:52:39;;;;;;;11.45;7.97;;;10.70;69.80;12.60;99793.00;;;;5033161;28;20192;-79
2024/02/12 05:55:07;;;;;;;13.40;8.10;;;10.70;69.80;12.70;99794.00;;;;5027654;28;20193;-79
2024/02/12 05:57:34;;;;;;;11.27;7.88;;;10.80;69.90;12.70;99803.00;;;;5032301;28;20228;-79
2024/02/12 06:00:01;;;;;;;13.52;8.45;;;10.80;69.90;12.70;99791.00;;;;5031409;28;20291;-78
2024/02/12 06:02:28;;;;;;;15.65;9.45;;;10.80;69.90;12.70;99793.00;;;;5019108;28;20205;-76
2024/02/12 06:04:55;;;;;;;11.82;7.82;;;10.80;70.00;12.80;99798.00;;;;5016435;28;20207;-78
2024/02/12 06:07:23;;;;;;;15.55;9.05;;;10.80;70.00;12.70;99804.00;;;;5029082;28;20196;-78
2024/02/12 06:09:51;;;;;;;16.80;8.48;;;10.90;70.00;12.80;99806.00;;;;5023459;28;20206;-79
2024/02/12 06:12:18;;;;;;;14.95;8.68;;;10.90;70.00;12.80;99806.00;;;;5018900;28;20200;-78
2024/02/12 06:14:45;;;;;;;14.35;8.55;;;10.90;70.00;12.80;99805.00;;;;5014281;28;20251;-79
2024/02/12 06:17:12;;;;;;;13.57;8.52;;;10.90;70.00;12.80;99809.00;;;;5031468;28;20314;-78
2024/02/12 06:19:42;;;;;;;14.02;8.57;;;10.90;70.00;12.80;99812.00;;;;5032237;28;20266;-79
2024/02/12 06:22:10;;;;;;;16.02;9.57;;;11.00;70.10;12.90;99823.00;;;;5024512;28;20201;-79
2024/02/12 06:24:39;;;;;;;14.50;9.18;;;11.00;70.10;12.90;99823.00;;;;5027953;28;20200;-78
2024/02/12 06:27:07;;;;;;;16.20;9.95;;;11.00;70.00;12.90;99820.00;;;;5031367;28;20279;-78
2024/02/12 06:29:39;;;;;;;15.35;9.73;;;11.00;70.00;12.90;99824.00;;;;5024721;28;20246;-78
2024/02/12 06:32:13;;;;;;;16.40;9.13;;;11.00;70.00;12.90;99831.00;;;;5018204;28;20280;-78
2024/02/12 06:34:44;;;;;;;13.98;9.40;;;11.00;70.00;12.90;99826.00;;;;5022861;28;20288;-78
2024/02/12 06:37:12;;;;;;;16.73;9.70;;;11.10;70.10;12.90;99825.00;;;;5027246;28;20307;-78
2024/02/12 06:39:43;;;;;;;16.05;9.55;;;11.10;70.10;12.90;99828.00;;;;5029508;28;20669;-79
2024/02/12 06:42:11;;;;;;;17.00;9.57;;;11.10;70.70;13.00;99830.00;;;;5029974;28;20228;-79
2024/02/12 06:44:38;;;;;;;13.52;9.85;;;11.10;70.10;13.00;99837.00;;;;5017705;28;20244;-78
2024/02/12 06:47:07;;;;;;;14.35;8.77;;;11.20;70.10;13.00;99853.00;;;;5033855;28;20630;-79
2024/02/12 06:49:34;;;;;;;15.10;8.90;;;11.20;70.20;13.00;99838.00;;;;5026754;28;20635;-78
2024/02/12 06:52:01;;;;;;;14.68;9.27;;;11.20;70.10;13.00;99849.00;;;;5025855;28;20232;-80
2024/02/12 06:54:30;;;;;;;15.68;9.73;;;11.20;70.00;13.00;99852.00;;;;5022125;28;20715;-79
2024/02/12 06:56:59;;;;;;;17.63;9.65;;;11.20;69.90;12.90;99859.00;;;;5027734;28;20601;-80
2024/02/12 06:59:26;;;;;;;16.02;10.23;;;11.10;69.80;12.90;99860.00;;;;5018127;28;20196;-80
2024/02/12 07:01:53;;;;;;;17.55;9.65;;;11.20;69.70;12.90;99852.00;;;;5029606;28;20279;-78
2024/02/12 07:04:20;;;;;;;12.68;8.25;;;11.20;69.70;12.80;99865.00;;;;5027910;28;20203;-73
2024/02/12 07:06:47;;;;;;;13.75;8.68;;;11.10;69.60;12.80;99869.00;;;;5025534;28;20200;-71
2024/02/12 07:09:14;;;;;;;17.05;9.40;;;11.10;69.50;12.80;99876.00;;;;5030095;28;20231;-71
2024/02/12 07:11:42;;;;;;;12.88;8.48;;;11.10;69.50;12.80;99885.00;;;;5028998;28;20744;-71
2024/02/12 07:14:11;;;;;;;14.80;8.73;;;11.10;69.50;12.70;99887.00;;;;5029305;28;20295;-72
2024/02/12 07:16:38;;;;;;;12.07;8.27;;;11.00;69.40;12.70;99896.00;;;;5029493;28;20318;-71
2024/02/12 07:19:05;;;;;;;14.13;7.93;;;11.00;69.30;12.70;99894.00;;;;5029493;28;20220;-71
2024/02/12 07:21:32;;;;;;;13.63;7.90;;;10.90;69.30;12.60;99899.00;;;;5029727;28;20204;-72
2024/02/12 07:24:00;;;;;;;13.25;8.73;;;10.90;69.30;12.60;99906.00;;;;5030806;28;20220;-71
2024/02/12 07:26:27;;;;;;;11.85;8.40;;;10.90;69.40;12.60;99901.00;;;;5030824;28;20193;-72
2024/02/12 07:28:54;;;;;;;16.40;9.15;;;10.90;69.50;12.50;99910.00;;;;5030434;28;20295;-71
2024/02/12 07:31:23;;;;;;;14.00;8.75;;;10.80;69.50;12.50;99911.00;;;;5031554;28;20554;-71
2024/02/12 07:33:50;;;;;;;15.98;8.57;;;10.80;69.50;12.50;99919.00;;;;5031833;28;20279;-71
2024/02/12 07:36:18;;;;;;;13.38;8.07;;;10.80;69.60;12.50;99923.00;;;;5031836;28;20211;-72
2024/02/12 07:38:45;;;;;;;11.85;7.95;;;10.70;69.60;12.40;99926.00;;;;5029967;28;20627;-71
2024/02/12 07:41:13;;;;;;;12.80;7.72;;;10.70;69.70;12.50;99926.00;;;;5031545;28;20192;-71
2024/02/12 07:43:42;;;;;;;12.38;7.95;;;10.70;69.70;12.40;99933.00;;;;5031370;28;20212;-72
2024/02/12 07:46:09;;;;;;;11.27;7.30;;;10.70;69.70;12.40;99942.00;;;;5030982;28;20250;-71
2024/02/12 07:48:40;;;;;;;13.98;8.68;;;10.70;69.80;12.40;99936.00;;;;5031537;28;20287;-71
2024/02/12 07:51:09;;;;;;;12.65;7.35;;;10.70;69.80;12.40;99942.00;;;;5031225;28;20212;-72
2024/02/12 07:53:38;;;;;;;11.80;7.72;;;10.70;69.80;12.40;99939.00;;;;5031366;28;20207;-71
2024/02/12 07:56:08;;;;;;;14.70;8.98;;;10.60;69.70;12.40;99947.00;;;;5025634;28;20647;-72
2024/02/12 07:58:36;;;;;;;11.82;7.30;;;10.60;69.70;12.40;99951.00;;;;5015648;28;20197;-72
2024/02/12 08:01:03;;;;;;;11.32;7.85;;;10.60;69.70;12.40;99954.00;;;;5011451;28;20255;-71
2024/02/12 08:03:31;;;;;;;11.35;7.72;;;10.60;69.80;12.40;99966.00;;;;5012896;28;20284;-71
2024/02/12 08:05:59;;;;;;;12.75;8.23;;;10.60;69.80;12.40;99960.00;;;;5031010;28;20192;-71
2024/02/12 08:08:27;;;;;;;13.32;7.70;;;10.60;69.80;12.40;99968.00;;;;5029075;28;20283;-71
2024/02/12 08:10:54;;;;;;;11.18;6.82;;;10.60;69.80;12.40;99973.00;;;;5028917;28;20219;-71
2024/02/12 08:13:21;;;;;;;13.07;7.88;;;10.60;69.80;12.40;99979.00;;;;5030731;28;20196;-71
2024/02/12 08:15:49;;;;;;;11.30;7.35;;;10.60;69.80;12.40;99974.00;;;;5011399;28;20205;-71
2024/02/12 08:18:16;;;;;;;10.98;7.55;;;10.60;70.70;12.40;99972.00;;;;5011571;28;20597;-71
2024/02/12 08:20:43;;;;;;;13.75;9.20;;;10.60;70.10;12.50;99976.00;;;;5030879;28;20933;-71
2024/02/12 08:23:12;;;;;;;14.50;8.40;;;10.60;70.30;12.50;99979.00;;;;5030041;28;20228;-71
2024/02/12 08:25:39;;;;;;;13.35;8.77;;;10.60;70.40;12.60;99983.00;;;;5030638;28;20212;-71
2024/02/12 08:28:07;;;;;;;15.13;8.90;;;10.70;70.60;12.60;99986.00;;;;5031116;28;20287;-72
2024/02/12 08:30:34;;;;;;;11.75;7.72;;;10.70;70.70;12.60;99996.00;;;;5030043;28;20193;-71
2024/02/12 08:33:02;;;;;;;14.13;8.15;;;10.80;70.80;12.70;99994.00;;;;5031100;28;20643;-71
2024/02/12 08:35:29;;;;;;;17.40;9.40;;;10.80;70.90;12.70;99991.00;;;;5030646;28;20658;-71
2024/02/12 08:37:56;;;;;;;12.43;8.70;;;10.80;70.80;12.70;99988.00;;;;5031926;28;20724;-71
2024/02/12 08:40:26;;;;;;;12.52;8.77;;;10.90;70.90;12.70;99997.00;;;;5033615;28;20772;-73
2024/02/12 08:42:54;;;;;;;14.88;8.48;;;10.90;70.80;12.80;100011.00;;;;5034507;28;20204;-71
2024/02/12 08:45:22;;;;;;;13.65;8.45;;;11.00;70.80;12.80;100011.00;;;;5033669;28;20633;-72
2024/02/12 08:47:49;;;;;;;14.45;8.63;;;11.00;70.80;12.80;100015.00;;;;5034204;28;20242;-71
2024/02/12 08:50:16;;;;;;;12.68;8.68;;;11.00;70.80;12.90;100013.00;;;;5033540;28;20631;-71
2024/02/12 08:52:44;;;;;;;16.70;9.23;;;11.00;70.90;12.90;100026.00;;;;5033898;28;20247;-72
2024/02/12 08:55:11;;;;;;;13.95;8.60;;;11.10;71.10;13.00;100033.00;;;;5033925;28;20209;-72
2024/02/12 08:57:42;;;;;;;16.33;9.75;;;11.20;71.20;13.00;100034.00;;;;5033837;28;20763;-71
2024/02/12 09:00:11;;;;;;;14.00;9.48;;;11.20;71.20;13.10;100038.00;;;;5031024;28;20208;-72
2024/02/12 09:02:40;;;;;;;15.82;9.25;;;11.20;71.40;13.20;100038.00;;;;5032736;28;20236;-71
2024/02/12 09:05:10;;;;;;;14.73;8.57;;;11.40;71.70;13.40;100045.00;;;;5034118;28;20677;-71
2024/02/12 09:07:38;;;;;;;13.60;8.82;;;11.50;71.90;13.50;100048.00;;;;5033221;28;20200;-71
2024/02/12 09:10:07;;;;;;;16.05;8.73;;;11.50;72.00;13.50;100044.00;;;;5033965;28;20196;-71
2024/02/12 09:12:37;;;;;;;16.50;9.52;;;11.70;72.10;13.60;100055.00;;;;5033639;28;20204;-71
2024/02/12 09:15:10;;;;;;;13.80;9.93;;;11.70;72.00;13.70;100065.00;;;;5033106;28;20658;-72
2024/02/12 09:17:38;;;;;;;12.70;8.55;;;11.80;71.90;13.70;100061.00;;;;5033742;28;20313;-72
2024/02/12 09:20:07;;;;;;;15.27;8.88;;;11.90;71.80;13.80;100077.00;;;;5033148;28;20802;-72
2024/02/12 09:22:35;;;;;;;13.60;8.43;;;12.00;71.80;13.90;100083.00;;;;5033736;28;20211;-72
2024/02/12 09:25:03;;;;;;;12.13;8.48;;;12.10;71.70;13.90;100088.00;;;;5033312;28;20328;-71
2024/02/12 09:27:30;;;;;;;12.23;7.90;;;12.20;71.60;14.00;100088.00;;;;5032474;28;20657;-72
2024/02/12 09:29:59;;;;;;;13.13;8.18;;;12.20;71.40;14.10;100095.00;;;;5032314;28;20205;-72
2024/02/12 09:32:27;;;;;;;13.23;8.52;;;12.30;71.30;14.10;100090.00;;;;5033037;28;20287;-72
2024/02/12 09:34:55;;;;;;;12.05;8.30;;;12.30;71.20;14.10;100090.00;;;;5033916;28;20208;-72
2024/02/12 09:37:29;;;;;;;11.57;8.30;;;12.40;71.10;14.20;100102.00;;;;5020778;28;20221;-72
2024/02/12 09:39:57;;;;;;;13.77;8.60;;;12.40;71.00;14.20;100103.00;;;;5013786;28;20197;-72
2024/02/12 09:42:28;;;;;;;11.15;7.68;;;12.50;70.90;14.30;100105.00;;;;5020979;28;20204;-72
2024/02/12 09:44:59;;;;;;;11.05;7.72;;;12.50;70.90;14.40;100107.00;;;;5032142;28;20283;-72
2024/02/12 09:47:31;;;;;;;14.98;8.27;;;12.60;71.00;14.40;100114.00;;;;5033372;28;20188;-72
2024/02/12 09:49:59;;;;;;;12.60;8.93;;;12.60;71.00;14.50;100125.00;;;;5031592;28;20569;-72
2024/02/12 09:52:28;;;;;;;13.45;7.90;;;12.70;71.20;14.60;100120.00;;;;5032266;28;20212;-71
2024/02/12 09:54:56;;;;;;;12.82;8.30;;;12.80;71.20;14.70;100119.00;;;;5033352;28;20243;-71
2024/02/12 09:57:24;;;;;;;12.43;7.07;;;12.80;71.10;14.80;100124.00;;;;5032495;28;20315;-72
2024/02/12 09:59:56;;;;;;;12.90;7.38;;;12.90;71.10;14.80;100131.00;;;;5030886;28;20204;-71
2024/02/12 10:02:24;;;;;;;11.40;7.70;;;13.00;71.00;14.80;100129.00;;;;5033290;28;20287;-71
2024/02/12 10:04:54;;;;;;;9.18;6.18;;;13.00;70.80;14.80;100140.00;;;;5030068;28;20201;-72
2024/02/12 10:07:22;;;;;;;8.95;6.25;;;13.10;70.60;14.90;100145.00;;;;5031513;28;20631;-72
2024/02/12 10:09:49;;;;;;;10.48;6.70;;;13.10;70.40;14.90;100140.00;;;;5016176;28;20283;-72
2024/02/12 10:12:18;;;;;;;10.98;6.63;;;13.10;70.30;15.00;100144.00;;;;5032425;28;20200;-72
2024/02/12 10:14:45;;;;;;;9.32;6.32;;;13.20;70.20;15.00;100153.00;;;;5032814;28;20227;-72
2024/02/12 10:17:13;;;;;;;8.02;6.38;;;13.20;70.10;15.00;100156.00;;;;5033014;28;20264;-72
2024/02/12 10:19:41;;;;;;;7.60;6.10;;;13.30;70.00;15.00;100156.00;;;;5028813;28;20650;-72
2024/02/12 10:22:11;;;;;;;9.98;5.47;;;13.30;70.00;15.10;100156.00;;;;5029011;28;20203;-72
2024/02/12 10:24:41;;;;;;;9.13;5.70;;;13.40;70.10;15.20;100171.00;;;;5012655;28;20209;-72
2024/02/12 10:27:09;;;;;;;8.90;5.60;;;13.40;70.00;15.20;100159.00;;;;5017456;28;20208;-72
2024/02/12 10:29:37;;;;;;;6.07;4.90;;;13.50;70.50;15.20;100175.00;;;;5031754;28;20263;-72
2024/02/12 10:32:08;;;;;;;5.47;4.18;;;13.50;69.70;15.30;100166.00;;;;5031745;28;20188;-72
2024/02/12 10:34:39;;;;;;;9.30;4.65;;;13.60;69.70;15.30;100174.00;;;;5031236;28;20201;-72
2024/02/12 10:37:10;;;;;;;5.30;3.97;;;13.60;69.60;15.40;100172.00;;;;5032394;28;20203;-72
2024/02/12 10:39:40;;;;;;;9.07;4.22;;;13.70;69.50;15.40;100171.00;;;;5032261;28;20290;-72
2024/02/12 10:42:11;;;;;;;5.05;3.63;;;13.70;69.20;15.50;100176.00;;;;5032312;28;20255;-72
2024/02/12 10:44:39;;;;;;;4.65;3.33;;;13.80;69.30;15.60;100183.00;;;;5031468;28;20279;-72
2024/02/12 10:47:09;;;;;;;5.00;3.60;;;13.80;69.30;15.60;100188.00;;;;5031033;28;20199;-72
2024/02/12 10:49:40;;;;;;;5.38;3.40;;;13.90;69.10;15.70;100193.00;;;;5029966;28;20609;-73
2024/02/12 10:52:10;;;;;;;6.40;3.10;;;13.90;68.90;15.70;100197.00;;;;5031692;28;20214;-72
2024/02/12 10:54:37;;;;;;;6.05;4.10;;;14.00;68.90;15.80;100201.00;;;;5031712;28;20208;-72
2024/02/12 10:57:08;;;;;;;10.48;5.18;;;14.00;68.80;15.80;100191.00;;;;5031829;28;20295;-72
2024/02/12 10:59:35;;;;;;;5.55;4.03;;;14.10;68.80;15.90;100192.00;;;;5031793;28;20242;-72
2024/02/12 11:02:09;;;;;;;6.30;4.72;;;14.10;68.70;15.90;100195.00;;;;5030511;28;20631;-72
2024/02/12 11:04:38;;;;;;;5.28;4.53;;;14.20;68.70;16.00;100204.00;;;;5031754;28;20203;-72
2024/02/12 11:07:18;;;;;;;5.30;4.00;;;14.30;68.70;16.00;100199.00;;;;5032207;28;20232;-72
2024/02/12 11:09:57;;;;;;;8.38;4.80;;;14.30;68.20;16.00;100202.00;;;;5031101;28;20246;-72